createdAt,value
2018-02-11T00:00:48.351Z,1001.25
2018-02-11T00:01:48.314Z,1001.27
2018-02-11T00:02:48.285Z,1001.23
2018-02-11T00:03:48.254Z,1001.23
2018-02-11T00:04:48.213Z,1001.18
2018-02-11T00:05:48.184Z,1001.21
2018-02-11T00:06:48.147Z,1001.17
2018-02-11T00:07:48.111Z,1001.17
2018-02-11T00:08:48.084Z,1001.17
2018-02-11T00:09:48.044Z,1001.16
2018-02-11T00:10:48.010Z,1001.09
2018-02-11T00:11:47.976Z,1001.08
2018-02-11T00:12:47.940Z,1001.05
2018-02-11T00:13:47.914Z,1001.05
2018-02-11T00:14:47.881Z,1000.96
2018-02-11T00:15:47.837Z,1000.99
2018-02-11T00:16:47.803Z,1000.95
2018-02-11T00:17:47.772Z,1000.90
2018-02-11T00:18:47.739Z,1000.90
2018-02-11T00:19:47.701Z,1000.90
2018-02-11T00:20:47.675Z,1000.81
2018-02-11T00:21:47.634Z,1000.82
2018-02-11T00:22:47.601Z,1000.76
2018-02-11T00:23:47.565Z,1000.73
2018-02-11T00:24:47.548Z,1000.74
2018-02-11T00:25:47.502Z,1000.67
2018-02-11T00:26:47.464Z,1000.64
2018-02-11T00:27:47.429Z,1000.60
2018-02-11T00:28:47.393Z,1000.63
2018-02-11T00:29:47.360Z,1000.58
2018-02-11T00:30:47.332Z,1000.64
2018-02-11T00:31:47.289Z,1000.60
2018-02-11T00:32:47.272Z,1000.62
2018-02-11T00:33:47.230Z,1000.60
2018-02-11T00:34:47.189Z,1000.59
2018-02-11T00:35:47.167Z,1000.64
2018-02-11T00:36:47.128Z,1000.60
2018-02-11T00:37:47.088Z,1000.55
2018-02-11T00:38:47.056Z,1000.52
2018-02-11T00:39:47.021Z,1000.47
2018-02-11T00:40:46.980Z,1000.46
2018-02-11T00:41:46.956Z,1000.44
2018-02-11T00:42:46.915Z,1000.40
2018-02-11T00:43:46.884Z,1000.38
2018-02-11T00:44:46.848Z,1000.40
2018-02-11T00:45:46.815Z,1000.37
2018-02-11T00:46:46.775Z,1000.34
2018-02-11T00:47:46.747Z,1000.35
2018-02-11T00:48:46.723Z,1000.38
2018-02-11T00:49:46.677Z,1000.35
2018-02-11T00:50:46.640Z,1000.36
2018-02-11T00:51:46.610Z,1000.32
2018-02-11T00:52:46.574Z,1000.34
2018-02-11T00:53:46.540Z,1000.33
2018-02-11T00:54:46.507Z,1000.34
2018-02-11T00:55:46.476Z,1000.32
2018-02-11T00:56:46.437Z,1000.31
2018-02-11T00:57:46.403Z,1000.24
2018-02-11T00:58:46.370Z,1000.25
2018-02-11T00:59:46.336Z,1000.24
2018-02-11T01:00:46.305Z,1000.22
2018-02-11T01:01:46.264Z,1000.17
2018-02-11T01:02:46.230Z,1000.15
2018-02-11T01:03:46.201Z,1000.12
2018-02-11T01:04:46.175Z,1000.14
2018-02-11T01:05:46.131Z,1000.06
2018-02-11T01:06:46.093Z,1000.09
2018-02-11T01:07:46.070Z,1000.01
2018-02-11T01:08:46.061Z,1000.03
2018-02-11T01:09:45.995Z,999.93
2018-02-11T01:10:45.962Z,999.90
2018-02-11T01:11:45.923Z,999.91
2018-02-11T01:12:45.891Z,999.88
2018-02-11T01:13:45.853Z,999.92
2018-02-11T01:14:45.820Z,999.83
2018-02-11T01:15:45.787Z,999.78
2018-02-11T01:16:45.751Z,999.82
2018-02-11T01:17:45.715Z,999.82
2018-02-11T01:18:45.684Z,999.74
2018-02-11T01:19:45.650Z,999.71
2018-02-11T01:20:45.612Z,999.70
2018-02-11T01:21:45.578Z,999.70
2018-02-11T01:22:45.558Z,999.69
2018-02-11T01:23:45.509Z,999.60
2018-02-11T01:24:45.478Z,999.60
2018-02-11T01:25:45.442Z,999.58
2018-02-11T01:26:45.403Z,999.55
2018-02-11T01:27:45.374Z,999.47
2018-02-11T01:28:45.337Z,999.45
2018-02-11T01:29:45.303Z,999.50
2018-02-11T01:30:45.270Z,999.43
2018-02-11T01:31:45.232Z,999.42
2018-02-11T01:32:45.196Z,999.44
2018-02-11T01:33:45.167Z,999.38
2018-02-11T01:34:45.130Z,999.43
2018-02-11T01:35:45.099Z,999.35
2018-02-11T01:36:45.057Z,999.28
2018-02-11T01:37:45.026Z,999.35
2018-02-11T01:38:44.991Z,999.23
2018-02-11T01:39:44.952Z,999.27
2018-02-11T01:40:44.917Z,999.24
2018-02-11T01:41:44.887Z,999.19
2018-02-11T01:42:44.850Z,999.18
2018-02-11T01:43:44.833Z,999.19
2018-02-11T01:44:44.780Z,999.16
2018-02-11T01:45:44.754Z,999.16
2018-02-11T01:46:44.738Z,999.13
2018-02-11T01:47:44.679Z,999.14
2018-02-11T01:48:44.643Z,998.97
2018-02-11T01:49:44.614Z,999.03
2018-02-11T01:50:44.585Z,998.99
2018-02-11T01:51:44.538Z,998.98
2018-02-11T01:52:44.505Z,998.94
2018-02-11T01:53:44.474Z,998.92
2018-02-11T01:54:44.450Z,998.89
2018-02-11T01:55:44.400Z,998.83
2018-02-11T01:56:44.371Z,998.78
2018-02-11T01:57:44.334Z,998.75
2018-02-11T01:58:44.300Z,998.73
2018-02-11T01:59:44.261Z,998.71
2018-02-11T02:00:44.229Z,998.58
2018-02-11T02:01:44.194Z,998.60
2018-02-11T02:02:44.158Z,998.48
2018-02-11T02:03:44.135Z,998.49
2018-02-11T02:04:44.087Z,998.44
2018-02-11T02:05:44.067Z,998.45
2018-02-11T02:06:44.021Z,998.39
2018-02-11T02:07:43.991Z,998.36
2018-02-11T02:08:43.956Z,998.25
2018-02-11T02:09:43.916Z,998.25
2018-02-11T02:10:43.885Z,998.24
2018-02-11T02:11:43.849Z,998.25
2018-02-11T02:12:43.819Z,998.18
2018-02-11T02:13:43.782Z,998.14
2018-02-11T02:14:43.741Z,998.17
2018-02-11T02:15:43.708Z,998.15
2018-02-11T02:16:43.675Z,998.05
2018-02-11T02:17:43.637Z,998.03
2018-02-11T02:18:43.609Z,998.03
2018-02-11T02:19:43.570Z,997.97
2018-02-11T02:20:43.536Z,997.98
2018-02-11T02:21:43.501Z,997.92
2018-02-11T02:22:43.468Z,997.87
2018-02-11T02:23:43.432Z,997.85
2018-02-11T02:24:43.401Z,997.88
2018-02-11T02:25:43.363Z,997.87
2018-02-11T02:26:43.330Z,997.74
2018-02-11T02:27:43.292Z,997.83
2018-02-11T02:28:43.257Z,997.76
2018-02-11T02:29:43.222Z,997.70
2018-02-11T02:30:43.189Z,997.66
2018-02-11T02:31:43.154Z,997.56
2018-02-11T02:32:43.123Z,997.57
2018-02-11T02:33:43.082Z,997.54
2018-02-11T02:34:43.047Z,997.45
2018-02-11T02:35:43.014Z,997.36
2018-02-11T02:36:42.986Z,997.36
2018-02-11T02:37:42.943Z,997.32
2018-02-11T02:38:42.910Z,997.26
2018-02-11T02:39:42.874Z,997.26
2018-02-11T02:40:42.842Z,997.16
2018-02-11T02:41:42.807Z,997.19
2018-02-11T02:42:42.767Z,997.12
2018-02-11T02:43:42.733Z,997.12
2018-02-11T02:44:42.701Z,997.15
2018-02-11T02:45:42.682Z,997.09
2018-02-11T02:46:42.628Z,997.03
2018-02-11T02:47:42.593Z,997.08
2018-02-11T02:48:42.571Z,997.03
2018-02-11T02:49:42.522Z,997.04
2018-02-11T02:50:42.497Z,996.97
2018-02-11T02:51:42.450Z,996.92
2018-02-11T02:52:42.424Z,996.88
2018-02-11T02:53:42.388Z,996.77
2018-02-11T02:54:42.347Z,996.70
2018-02-11T02:55:42.318Z,996.61
2018-02-11T02:56:42.281Z,996.50
2018-02-11T02:57:42.250Z,996.49
2018-02-11T02:58:42.206Z,996.43
2018-02-11T02:59:42.175Z,996.41
2018-02-11T03:00:42.140Z,996.36
2018-02-11T03:01:42.111Z,996.38
2018-02-11T03:02:42.090Z,996.25
2018-02-11T03:03:42.035Z,996.23
2018-02-11T03:04:42.000Z,996.24
2018-02-11T03:05:41.968Z,996.23
2018-02-11T03:06:41.934Z,996.15
2018-02-11T03:07:41.895Z,996.10
2018-02-11T03:08:41.862Z,996.14
2018-02-11T03:09:41.821Z,996.06
2018-02-11T03:10:41.794Z,996.00
2018-02-11T03:11:41.762Z,996.00
2018-02-11T03:12:41.724Z,995.89
2018-02-11T03:13:41.687Z,995.84
2018-02-11T03:14:41.654Z,995.88
2018-02-11T03:15:41.623Z,995.80
2018-02-11T03:16:41.593Z,995.81
2018-02-11T03:17:41.544Z,995.69
2018-02-11T03:18:41.509Z,995.73
2018-02-11T03:19:41.488Z,995.69
2018-02-11T03:20:41.445Z,995.67
2018-02-11T03:21:41.410Z,995.66
2018-02-11T03:22:41.407Z,995.59
2018-02-11T03:23:41.336Z,995.57
2018-02-11T03:24:41.306Z,995.50
2018-02-11T03:25:41.270Z,995.54
2018-02-11T03:26:41.236Z,995.50
2018-02-11T03:27:41.197Z,995.50
2018-02-11T03:28:41.163Z,995.48
2018-02-11T03:29:41.132Z,995.44
2018-02-11T03:30:41.095Z,995.39
2018-02-11T03:31:41.061Z,995.40
2018-02-11T03:32:41.027Z,995.38
2018-02-11T03:33:40.987Z,995.31
2018-02-11T03:34:40.955Z,995.40
2018-02-11T03:35:40.931Z,995.31
2018-02-11T03:36:40.885Z,995.29
2018-02-11T03:37:40.857Z,995.24
2018-02-11T03:38:40.816Z,995.26
2018-02-11T03:39:40.781Z,995.21
2018-02-11T03:40:40.747Z,995.18
2018-02-11T03:41:40.744Z,995.17
2018-02-11T03:42:40.676Z,995.11
2018-02-11T03:43:40.649Z,995.13
2018-02-11T03:44:40.608Z,995.06
2018-02-11T03:45:40.575Z,995.01
2018-02-11T03:46:40.540Z,995.10
2018-02-11T03:47:40.521Z,995.05
2018-02-11T03:48:40.470Z,994.93
2018-02-11T03:49:40.444Z,994.86
2018-02-11T03:50:40.403Z,994.88
2018-02-11T03:51:40.367Z,994.91
2018-02-11T03:52:40.332Z,994.90
2018-02-11T03:53:40.296Z,994.85
2018-02-11T03:54:40.263Z,994.79
2018-02-11T03:55:40.221Z,994.85
2018-02-11T03:56:40.186Z,994.82
2018-02-11T03:57:40.155Z,994.77
2018-02-11T03:58:40.124Z,994.75
2018-02-11T03:59:40.086Z,994.80
2018-02-11T04:00:40.050Z,994.78
2018-02-11T04:01:40.020Z,994.67
2018-02-11T04:02:39.977Z,994.70
2018-02-11T04:03:39.953Z,994.71
2018-02-11T04:04:39.915Z,994.63
2018-02-11T04:05:39.877Z,994.71
2018-02-11T04:06:39.845Z,994.62
2018-02-11T04:07:39.809Z,994.70
2018-02-11T04:08:39.774Z,994.76
2018-02-11T04:09:39.746Z,994.69
2018-02-11T04:10:39.717Z,994.66
2018-02-11T04:11:39.672Z,994.65
2018-02-11T04:12:39.636Z,994.63
2018-02-11T04:13:39.609Z,994.63
2018-02-11T04:14:39.568Z,994.57
2018-02-11T04:15:39.526Z,994.59
2018-02-11T04:16:39.503Z,994.49
2018-02-11T04:17:39.458Z,994.54
2018-02-11T04:18:39.429Z,994.52
2018-02-11T04:19:39.392Z,994.42
2018-02-11T04:20:39.354Z,994.49
2018-02-11T04:21:39.329Z,994.53
2018-02-11T04:22:39.286Z,994.47
2018-02-11T04:23:39.253Z,994.47
2018-02-11T04:24:39.223Z,994.32
2018-02-11T04:25:39.195Z,994.35
2018-02-11T04:26:39.155Z,994.40
2018-02-11T04:27:39.112Z,994.28
2018-02-11T04:28:39.082Z,994.31
2018-02-11T04:29:39.046Z,994.33
2018-02-11T04:30:39.011Z,994.24
2018-02-11T04:31:38.978Z,994.26
2018-02-11T04:32:38.941Z,994.17
2018-02-11T04:33:38.907Z,994.15
2018-02-11T04:34:38.874Z,994.11
2018-02-11T04:35:38.838Z,994.09
2018-02-11T04:36:38.806Z,994.09
2018-02-11T04:37:38.770Z,994.00
2018-02-11T04:38:38.731Z,994.00
2018-02-11T04:39:38.703Z,994.00
2018-02-11T04:40:38.666Z,994.10
2018-02-11T04:41:38.629Z,993.93
2018-02-11T04:42:38.594Z,994.02
2018-02-11T04:43:38.556Z,994.03
2018-02-11T04:44:38.535Z,993.93
2018-02-11T04:45:38.494Z,993.98
2018-02-11T04:46:38.454Z,993.91
2018-02-11T04:47:38.422Z,993.90
2018-02-11T04:48:38.383Z,993.84
2018-02-11T04:49:38.361Z,993.85
2018-02-11T04:50:38.324Z,993.87
2018-02-11T04:51:38.284Z,993.75
2018-02-11T04:52:38.249Z,993.76
2018-02-11T04:53:38.214Z,993.75
2018-02-11T04:54:38.174Z,993.62
2018-02-11T04:55:38.154Z,993.63
2018-02-11T04:56:38.105Z,993.62
2018-02-11T04:57:38.071Z,993.58
2018-02-11T04:58:38.038Z,993.62
2018-02-11T04:59:38.006Z,993.58
2018-02-11T05:00:37.976Z,993.51
2018-02-11T05:01:37.939Z,993.45
2018-02-11T05:02:37.903Z,993.51
2018-02-11T05:03:37.867Z,993.55
2018-02-11T05:04:37.825Z,993.54
2018-02-11T05:05:37.798Z,993.54
2018-02-11T05:06:37.768Z,993.60
2018-02-11T05:07:37.724Z,993.52
2018-02-11T05:08:37.693Z,993.48
2018-02-11T05:09:37.672Z,993.48
2018-02-11T05:10:37.634Z,993.44
2018-02-11T05:11:37.585Z,993.40
2018-02-11T05:12:37.562Z,993.28
2018-02-11T05:13:37.520Z,993.24
2018-02-11T05:14:37.487Z,993.30
2018-02-11T05:15:38.000Z,993.25
2018-02-11T05:16:37.419Z,993.19
2018-02-11T05:17:37.381Z,993.18
2018-02-11T05:18:37.351Z,993.21
2018-02-11T05:19:37.318Z,993.22
2018-02-11T05:20:37.281Z,993.14
2018-02-11T05:21:37.240Z,993.19
2018-02-11T05:22:37.224Z,993.16
2018-02-11T05:23:37.177Z,993.17
2018-02-11T05:24:37.138Z,993.13
2018-02-11T05:25:37.111Z,993.18
2018-02-11T05:26:37.081Z,993.12
2018-02-11T05:27:37.030Z,993.17
2018-02-11T05:28:37.001Z,993.15
2018-02-11T05:29:36.960Z,993.11
2018-02-11T05:30:36.942Z,993.03
2018-02-11T05:31:36.895Z,993.06
2018-02-11T05:32:36.856Z,993.10
2018-02-11T05:33:36.825Z,993.01
2018-02-11T05:34:36.787Z,992.98
2018-02-11T05:35:36.756Z,992.90
2018-02-11T05:36:36.725Z,992.87
2018-02-11T05:37:36.685Z,992.95
2018-02-11T05:38:36.652Z,992.90
2018-02-11T05:39:36.615Z,992.94
2018-02-11T05:40:36.582Z,992.82
2018-02-11T05:41:36.549Z,992.79
2018-02-11T05:42:36.509Z,992.72
2018-02-11T05:43:36.479Z,992.75
2018-02-11T05:44:36.443Z,992.72
2018-02-11T05:45:36.410Z,992.73
2018-02-11T05:46:36.376Z,992.69
2018-02-11T05:47:36.337Z,992.68
2018-02-11T05:48:36.304Z,992.67
2018-02-11T05:49:36.268Z,992.70
2018-02-11T05:50:36.234Z,992.68
2018-02-11T05:51:36.205Z,992.63
2018-02-11T05:52:36.164Z,992.63
2018-02-11T05:53:36.132Z,992.68
2018-02-11T05:54:36.096Z,992.62
2018-02-11T05:55:36.063Z,992.64
2018-02-11T05:56:36.033Z,992.66
2018-02-11T05:57:35.998Z,992.61
2018-02-11T05:58:35.952Z,992.58
2018-02-11T05:59:35.921Z,992.55
2018-02-11T06:00:35.884Z,992.52
2018-02-11T06:01:35.851Z,992.54
2018-02-11T06:02:35.819Z,992.51
2018-02-11T06:03:35.786Z,992.54
2018-02-11T06:04:35.749Z,992.53
2018-02-11T06:05:35.715Z,992.54
2018-02-11T06:06:35.675Z,992.50
2018-02-11T06:07:35.641Z,992.50
2018-02-11T06:08:35.619Z,992.48
2018-02-11T06:09:35.578Z,992.35
2018-02-11T06:10:36.510Z,992.37
2018-02-11T06:11:35.525Z,992.38
2018-02-11T06:12:35.492Z,992.42
2018-02-11T06:13:35.438Z,992.42
2018-02-11T06:14:35.401Z,992.32
2018-02-11T06:15:35.367Z,992.32
2018-02-11T06:16:35.332Z,992.30
2018-02-11T06:17:35.306Z,992.29
2018-02-11T06:18:35.266Z,992.30
2018-02-11T06:19:35.235Z,992.29
2018-02-11T06:20:35.193Z,992.33
2018-02-11T06:21:35.159Z,992.29
2018-02-11T06:22:35.133Z,992.21
2018-02-11T06:23:35.104Z,992.30
2018-02-11T06:24:35.056Z,992.23
2018-02-11T06:25:35.035Z,992.20
2018-02-11T06:26:35.000Z,992.19
2018-02-11T06:27:34.960Z,992.12
2018-02-11T06:28:34.919Z,992.16
2018-02-11T06:29:34.890Z,992.14
2018-02-11T06:30:34.880Z,992.21
2018-02-11T06:31:34.820Z,992.17
2018-02-11T06:32:34.789Z,992.15
2018-02-11T06:33:34.750Z,992.16
2018-02-11T06:34:34.714Z,992.18
2018-02-11T06:35:34.680Z,992.11
2018-02-11T06:36:34.644Z,992.06
2018-02-11T06:37:34.607Z,992.07
2018-02-11T06:38:34.577Z,992.12
2018-02-11T06:39:34.541Z,992.11
2018-02-11T06:40:34.510Z,992.17
2018-02-11T06:41:34.471Z,992.15
2018-02-11T06:42:34.435Z,992.13
2018-02-11T06:43:34.405Z,992.14
2018-02-11T06:44:34.374Z,992.12
2018-02-11T06:45:34.340Z,992.20
2018-02-11T06:46:34.298Z,992.16
2018-02-11T06:47:34.264Z,992.16
2018-02-11T06:48:34.235Z,992.23
2018-02-11T06:49:34.191Z,992.15
2018-02-11T06:50:34.164Z,992.21
2018-02-11T06:51:34.140Z,992.20
2018-02-11T06:52:34.090Z,992.22
2018-02-11T06:53:34.064Z,992.20
2018-02-11T06:54:34.029Z,992.23
2018-02-11T06:55:33.995Z,992.18
2018-02-11T06:56:33.966Z,992.22
2018-02-11T06:57:33.926Z,992.23
2018-02-11T06:58:33.892Z,992.32
2018-02-11T06:59:33.853Z,992.29
2018-02-11T07:00:33.821Z,992.31
2018-02-11T07:01:33.788Z,992.28
2018-02-11T07:02:33.746Z,992.29
2018-02-11T07:03:33.720Z,992.29
2018-02-11T07:04:33.680Z,992.33
2018-02-11T07:05:33.645Z,992.37
2018-02-11T07:06:33.611Z,992.33
2018-02-11T07:07:33.577Z,992.28
2018-02-11T07:08:33.543Z,992.26
2018-02-11T07:09:33.505Z,992.27
2018-02-11T07:10:33.492Z,992.33
2018-02-11T07:11:33.437Z,992.23
2018-02-11T07:12:33.403Z,992.32
2018-02-11T07:13:33.376Z,992.28
2018-02-11T07:14:33.340Z,992.24
2018-02-11T07:15:33.308Z,992.30
2018-02-11T07:16:33.273Z,992.16
2018-02-11T07:17:33.239Z,992.26
2018-02-11T07:18:33.201Z,992.32
2018-02-11T07:19:33.171Z,992.34
2018-02-11T07:20:33.135Z,992.31
2018-02-11T07:21:33.098Z,992.25
2018-02-11T07:22:33.061Z,992.26
2018-02-11T07:23:33.027Z,992.33
2018-02-11T07:24:32.999Z,992.22
2018-02-11T07:25:32.992Z,992.28
2018-02-11T07:26:32.931Z,992.34
2018-02-11T07:27:32.895Z,992.23
2018-02-11T07:28:32.861Z,992.28
2018-02-11T07:29:32.824Z,992.20
2018-02-11T07:30:32.792Z,992.19
2018-02-11T07:31:32.762Z,992.21
2018-02-11T07:32:32.744Z,992.25
2018-02-11T07:33:32.688Z,992.24
2018-02-11T07:34:32.657Z,992.35
2018-02-11T07:35:32.625Z,992.37
2018-02-11T07:36:32.584Z,992.44
2018-02-11T07:37:32.560Z,992.29
2018-02-11T07:38:32.518Z,992.31
2018-02-11T07:39:32.489Z,992.29
2018-02-11T07:40:32.457Z,992.27
2018-02-11T07:41:32.415Z,992.35
2018-02-11T07:42:32.383Z,992.37
2018-02-11T07:43:32.347Z,992.34
2018-02-11T07:44:32.315Z,992.49
2018-02-11T07:45:32.282Z,992.43
2018-02-11T07:46:32.242Z,992.41
2018-02-11T07:47:34.016Z,992.42
2018-02-11T07:48:32.180Z,992.31
2018-02-11T07:49:32.145Z,992.37
2018-02-11T07:50:32.110Z,992.40
2018-02-11T07:51:32.084Z,992.39
2018-02-11T07:52:32.042Z,992.43
2018-02-11T07:53:32.013Z,992.39
2018-02-11T07:54:31.998Z,992.42
2018-02-11T07:55:31.942Z,992.38
2018-02-11T07:56:31.914Z,992.41
2018-02-11T07:57:31.877Z,992.45
2018-02-11T07:58:31.836Z,992.49
2018-02-11T07:59:31.807Z,992.52
2018-02-11T08:00:31.773Z,992.56
2018-02-11T08:01:31.738Z,992.55
2018-02-11T08:02:31.705Z,992.62
2018-02-11T08:03:31.676Z,992.58
2018-02-11T08:04:31.636Z,992.62
2018-02-11T08:05:31.603Z,992.61
2018-02-11T08:06:31.565Z,992.61
2018-02-11T08:07:31.539Z,992.61
2018-02-11T08:08:31.503Z,992.60
2018-02-11T08:09:31.471Z,992.54
2018-02-11T08:10:31.431Z,992.60
2018-02-11T08:11:31.401Z,992.64
2018-02-11T08:12:31.373Z,992.62
2018-02-11T08:13:31.332Z,992.65
2018-02-11T08:14:31.293Z,992.67
2018-02-11T08:15:31.267Z,992.71
2018-02-11T08:16:31.235Z,992.70
2018-02-11T08:17:31.195Z,992.66
2018-02-11T08:18:31.172Z,992.67
2018-02-11T08:19:31.132Z,992.70
2018-02-11T08:20:31.102Z,992.65
2018-02-11T08:21:31.061Z,992.66
2018-02-11T08:22:31.028Z,992.66
2018-02-11T08:23:30.995Z,992.62
2018-02-11T08:24:30.967Z,992.68
2018-02-11T08:25:30.933Z,992.66
2018-02-11T08:26:30.904Z,992.65
2018-02-11T08:27:30.867Z,992.76
2018-02-11T08:28:30.826Z,992.64
2018-02-11T08:29:30.799Z,992.67
2018-02-11T08:30:30.769Z,992.71
2018-02-11T08:31:30.727Z,992.66
2018-02-11T08:32:30.692Z,992.66
2018-02-11T08:33:30.662Z,992.62
2018-02-11T08:34:30.625Z,992.62
2018-02-11T08:35:30.598Z,992.56
2018-02-11T08:36:30.555Z,992.54
2018-02-11T08:37:30.520Z,992.55
2018-02-11T08:38:30.490Z,992.61
2018-02-11T08:39:30.460Z,992.58
2018-02-11T08:40:30.425Z,992.57
2018-02-11T08:41:30.392Z,992.55
2018-02-11T08:42:30.354Z,992.55
2018-02-11T08:43:30.334Z,992.51
2018-02-11T08:44:30.284Z,992.54
2018-02-11T08:45:30.261Z,992.50
2018-02-11T08:46:30.219Z,992.43
2018-02-11T08:47:30.186Z,992.53
2018-02-11T08:48:30.154Z,992.52
2018-02-11T08:49:30.200Z,992.41
2018-02-11T08:50:30.085Z,992.52
2018-02-11T08:51:30.056Z,992.42
2018-02-11T08:52:30.020Z,992.45
2018-02-11T08:53:29.987Z,992.41
2018-02-11T08:54:29.956Z,992.39
2018-02-11T08:55:29.918Z,992.45
2018-02-11T08:56:29.884Z,992.44
2018-02-11T08:57:29.851Z,992.48
2018-02-11T08:58:29.866Z,992.50
2018-02-11T08:59:29.791Z,992.48
2018-02-11T09:00:29.753Z,992.54
2018-02-11T09:01:29.719Z,992.48
2018-02-11T09:02:29.683Z,992.51
2018-02-11T09:03:29.644Z,992.49
2018-02-11T09:04:29.617Z,992.49
2018-02-11T09:05:29.584Z,992.39
2018-02-11T09:06:29.548Z,992.43
2018-02-11T09:07:29.518Z,992.43
2018-02-11T09:08:29.482Z,992.43
2018-02-11T09:09:29.454Z,992.45
2018-02-11T09:10:29.413Z,992.44
2018-02-11T09:11:29.377Z,992.45
2018-02-11T09:12:29.356Z,992.51
2018-02-11T09:13:29.316Z,992.46
2018-02-11T09:14:29.282Z,992.48
2018-02-11T09:15:29.253Z,992.50
2018-02-11T09:16:29.221Z,992.50
2018-02-11T09:17:29.185Z,992.45
2018-02-11T09:18:29.150Z,992.44
2018-02-11T09:19:29.114Z,992.49
2018-02-11T09:20:29.081Z,992.45
2018-02-11T09:21:29.060Z,992.44
2018-02-11T09:22:29.027Z,992.47
2018-02-11T09:23:28.987Z,992.49
2018-02-11T09:24:28.951Z,992.52
2018-02-11T09:25:28.917Z,992.50
2018-02-11T09:26:28.893Z,992.59
2018-02-11T09:27:28.853Z,992.51
2018-02-11T09:28:28.814Z,992.59
2018-02-11T09:29:28.785Z,992.55
2018-02-11T09:30:28.752Z,992.51
2018-02-11T09:31:28.715Z,992.52
2018-02-11T09:32:28.696Z,992.49
2018-02-11T09:33:28.657Z,992.50
2018-02-11T09:34:28.618Z,992.52
2018-02-11T09:35:28.581Z,992.55
2018-02-11T09:36:28.551Z,992.60
2018-02-11T09:37:28.522Z,992.63
2018-02-11T09:38:28.482Z,992.56
2018-02-11T09:39:28.450Z,992.57
2018-02-11T09:40:28.422Z,992.57
2018-02-11T09:41:28.388Z,992.60
2018-02-11T09:42:28.353Z,992.53
2018-02-11T09:43:28.321Z,992.56
2018-02-11T09:44:28.287Z,992.54
2018-02-11T09:45:28.258Z,992.58
2018-02-11T09:46:28.219Z,992.54
2018-02-11T09:47:28.196Z,992.61
2018-02-11T09:48:28.158Z,992.57
2018-02-11T09:49:28.119Z,992.60
2018-02-11T09:50:28.108Z,992.55
2018-02-11T09:51:28.066Z,992.63
2018-02-11T09:52:28.017Z,992.58
2018-02-11T09:53:28.006Z,992.58
2018-02-11T09:54:27.966Z,992.52
2018-02-11T09:55:27.919Z,992.54
2018-02-11T09:56:27.895Z,992.56
2018-02-11T09:57:27.867Z,992.56
2018-02-11T09:58:27.825Z,992.54
2018-02-11T09:59:27.792Z,992.56
2018-02-11T10:00:27.762Z,992.61
2018-02-11T10:01:27.725Z,992.61
2018-02-11T10:02:27.697Z,992.63
2018-02-11T10:03:27.662Z,992.62
2018-02-11T10:04:27.641Z,992.63
2018-02-11T10:05:27.603Z,992.62
2018-02-11T10:06:27.560Z,992.65
2018-02-11T10:07:27.526Z,992.61
2018-02-11T10:08:27.498Z,992.63
2018-02-11T10:09:27.467Z,992.65
2018-02-11T10:10:27.440Z,992.67
2018-02-11T10:11:27.407Z,992.69
2018-02-11T10:12:27.369Z,992.69
2018-02-11T10:13:27.344Z,992.70
2018-02-11T10:14:27.299Z,992.70
2018-02-11T10:15:27.265Z,992.70
2018-02-11T10:16:27.234Z,992.72
2018-02-11T10:17:27.209Z,992.73
2018-02-11T10:18:27.167Z,992.69
2018-02-11T10:19:27.134Z,992.67
2018-02-11T10:20:27.110Z,992.66
2018-02-11T10:21:27.071Z,992.71
2018-02-11T10:22:27.036Z,992.64
2018-02-11T10:23:27.012Z,992.65
2018-02-11T10:24:26.974Z,992.72
2018-02-11T10:25:26.941Z,992.72
2018-02-11T10:26:26.908Z,992.67
2018-02-11T10:27:26.893Z,992.69
2018-02-11T10:28:26.848Z,992.64
2018-02-11T10:29:26.806Z,992.66
2018-02-11T10:30:26.783Z,992.66
2018-02-11T10:31:26.749Z,992.70
2018-02-11T10:32:26.714Z,992.69
2018-02-11T10:33:26.682Z,992.69
2018-02-11T10:34:26.656Z,992.68
2018-02-11T10:35:26.618Z,992.70
2018-02-11T10:36:26.588Z,992.71
2018-02-11T10:37:26.553Z,992.68
2018-02-11T10:38:26.526Z,992.72
2018-02-11T10:39:26.502Z,992.72
2018-02-11T10:40:26.460Z,992.77
2018-02-11T10:41:26.420Z,992.72
2018-02-11T10:42:26.392Z,992.71
2018-02-11T10:43:26.363Z,992.78
2018-02-11T10:44:26.327Z,992.77
2018-02-11T10:45:26.299Z,992.71
2018-02-11T10:46:26.269Z,992.71
2018-02-11T10:47:26.230Z,992.74
2018-02-11T10:48:26.222Z,992.71
2018-02-11T10:49:26.168Z,992.75
2018-02-11T10:50:26.133Z,992.77
2018-02-11T10:51:26.109Z,992.80
2018-02-11T10:52:26.075Z,992.88
2018-02-11T10:53:26.047Z,992.79
2018-02-11T10:54:26.052Z,992.82
2018-02-11T10:55:25.978Z,992.80
2018-02-11T10:56:25.957Z,992.75
2018-02-11T10:57:25.913Z,992.76
2018-02-11T10:58:25.891Z,992.76
2018-02-11T10:59:25.859Z,992.76
2018-02-11T11:00:25.821Z,992.74
2018-02-11T11:01:25.806Z,992.78
2018-02-11T11:02:25.760Z,992.83
2018-02-11T11:03:25.721Z,992.79
2018-02-11T11:04:25.696Z,992.80
2018-02-11T11:05:25.688Z,992.76
2018-02-11T11:06:25.634Z,992.82
2018-02-11T11:07:25.596Z,992.70
2018-02-11T11:08:25.573Z,992.74
2018-02-11T11:09:25.536Z,992.74
2018-02-11T11:10:25.507Z,992.78
2018-02-11T11:11:25.471Z,992.78
2018-02-11T11:12:25.443Z,992.77
2018-02-11T11:13:25.411Z,992.78
2018-02-11T11:14:25.382Z,992.79
2018-02-11T11:15:25.350Z,992.82
2018-02-11T11:16:25.318Z,992.77
2018-02-11T11:17:25.291Z,992.78
2018-02-11T11:18:25.259Z,992.77
2018-02-11T11:19:25.224Z,992.75
2018-02-11T11:20:25.199Z,992.82
2018-02-11T11:21:25.168Z,992.86
2018-02-11T11:22:25.131Z,992.83
2018-02-11T11:23:25.102Z,992.86
2018-02-11T11:24:25.067Z,992.87
2018-02-11T11:25:25.045Z,992.89
2018-02-11T11:26:25.008Z,992.85
2018-02-11T11:27:24.977Z,992.96
2018-02-11T11:28:24.952Z,992.85
2018-02-11T11:29:24.914Z,992.92
2018-02-11T11:30:24.883Z,992.81
2018-02-11T11:31:24.923Z,992.85
2018-02-11T11:32:24.820Z,992.85
2018-02-11T11:33:24.786Z,992.87
2018-02-11T11:34:24.803Z,992.83
2018-02-11T11:35:24.725Z,992.85
2018-02-11T11:36:24.706Z,992.83
2018-02-11T11:37:24.671Z,992.83
2018-02-11T11:38:24.630Z,992.81
2018-02-11T11:39:24.601Z,992.81
2018-02-11T11:40:24.567Z,992.84
2018-02-11T11:41:24.541Z,992.88
2018-02-11T11:42:24.503Z,992.84
2018-02-11T11:43:24.468Z,992.87
2018-02-11T11:44:24.478Z,992.94
2018-02-11T11:45:24.409Z,992.92
2018-02-11T11:46:24.379Z,992.92
2018-02-11T11:47:24.347Z,992.96
2018-02-11T11:48:24.314Z,992.96
2018-02-11T11:49:24.286Z,992.97
2018-02-11T11:50:24.283Z,993.00
2018-02-11T11:51:24.238Z,992.90
2018-02-11T11:52:24.206Z,992.98
2018-02-11T11:53:24.159Z,993.04
2018-02-11T11:54:24.119Z,992.99
2018-02-11T11:55:24.103Z,993.00
2018-02-11T11:56:24.092Z,993.01
2018-02-11T11:57:24.030Z,992.99
2018-02-11T11:58:23.997Z,993.00
2018-02-11T11:59:23.966Z,993.00
2018-02-11T12:00:23.950Z,992.96
2018-02-11T12:01:23.908Z,992.99
2018-02-11T12:02:23.872Z,992.94
2018-02-11T12:03:23.845Z,992.98
2018-02-11T12:04:23.809Z,992.94
2018-02-11T12:05:23.787Z,992.97
2018-02-11T12:06:23.751Z,992.92
2018-02-11T12:07:23.718Z,992.93
2018-02-11T12:08:23.682Z,992.98
2018-02-11T12:09:23.678Z,992.95
2018-02-11T12:10:23.619Z,992.90
2018-02-11T12:11:23.588Z,992.90
2018-02-11T12:12:23.558Z,993.00
2018-02-11T12:13:23.531Z,992.97
2018-02-11T12:14:23.495Z,992.96
2018-02-11T12:15:23.464Z,992.95
2018-02-11T12:16:23.440Z,993.01
2018-02-11T12:17:23.450Z,992.98
2018-02-11T12:18:23.371Z,993.01
2018-02-11T12:19:23.335Z,992.94
2018-02-11T12:20:23.305Z,992.91
2018-02-11T12:21:23.279Z,992.89
2018-02-11T12:22:23.249Z,992.88
2018-02-11T12:23:23.212Z,992.90
2018-02-11T12:24:23.184Z,992.93
2018-02-11T12:25:23.152Z,992.86
2018-02-11T12:26:23.123Z,992.93